createdAt,value
2023-06-27T00:01:53.520Z,85.98
2023-06-27T00:05:17.114Z,87.51
2023-06-27T00:08:16.675Z,87.25
2023-06-27T00:11:24.052Z,90.81
2023-06-27T00:14:35.052Z,90.44
2023-06-27T00:17:44.720Z,89.57
2023-06-27T00:20:56.216Z,90.03
2023-06-27T00:24:04.312Z,90.91
2023-06-27T00:27:20.380Z,91.75
2023-06-27T00:30:31.951Z,93.27
2023-06-27T00:33:28.203Z,94.04
2023-06-27T00:36:46.924Z,94.36
2023-06-27T00:39:39.812Z,94.25
2023-06-27T00:42:44.585Z,95.76
2023-06-27T00:46:13.148Z,94.57
2023-06-27T00:49:22.874Z,95.95
2023-06-27T00:52:46.697Z,96.76
2023-06-27T00:56:02.497Z,97.87
2023-06-27T00:59:30.012Z,97.82
2023-06-27T01:02:54.210Z,99.87
2023-06-27T01:06:00.301Z,99.62
2023-06-27T01:09:10.136Z,100.00
2023-06-27T01:12:22.151Z,99.62
2023-06-27T01:15:42.752Z,99.96
2023-06-27T01:18:32.471Z,100.00
2023-06-27T01:21:09.598Z,100.00
2023-06-27T01:24:37.649Z,100.00
2023-06-27T01:27:46.406Z,100.00
2023-06-27T01:31:14.099Z,100.00
2023-06-27T01:33:59.455Z,100.00
2023-06-27T01:37:15.513Z,100.00
2023-06-27T01:40:04.394Z,100.00
2023-06-27T01:43:31.967Z,100.00
2023-06-27T01:46:20.579Z,100.00
2023-06-27T01:49:14.222Z,100.00
2023-06-27T01:52:22.332Z,100.00
2023-06-27T01:55:49.810Z,100.00
2023-06-27T01:59:13.646Z,100.00
2023-06-27T02:02:37.511Z,100.00
2023-06-27T02:06:01.053Z,100.00
2023-06-27T02:09:28.895Z,100.00
2023-06-27T02:12:56.467Z,100.00
2023-06-27T02:16:04.897Z,100.00
2023-06-27T02:19:32.550Z,100.00
2023-06-27T02:22:37.774Z,100.00
2023-06-27T02:26:06.512Z,100.00
2023-06-27T02:29:37.411Z,100.00
2023-06-27T02:32:45.142Z,100.00
2023-06-27T02:36:14.175Z,100.00
2023-06-27T02:39:11.893Z,100.00
2023-06-27T02:42:20.667Z,100.00
2023-06-27T02:45:48.211Z,100.00
2023-06-27T02:48:56.890Z,100.00
2023-06-27T02:52:24.470Z,100.00
2023-06-27T02:55:34.264Z,100.00
2023-06-27T02:58:43.041Z,100.00
2023-06-27T03:01:52.061Z,100.00
2023-06-27T03:05:19.656Z,100.00
2023-06-27T03:08:47.300Z,100.00
2023-06-27T03:12:14.840Z,100.00
2023-06-27T03:15:21.254Z,100.00
2023-06-27T03:18:29.796Z,100.00
2023-06-27T03:21:39.448Z,100.00
2023-06-27T03:24:49.358Z,100.00
2023-06-27T03:27:40.334Z,100.00
2023-06-27T03:31:08.819Z,100.00
2023-06-27T03:34:36.574Z,100.00
2023-06-27T03:38:04.633Z,100.00
2023-06-27T03:40:33.771Z,100.00
2023-06-27T03:43:57.397Z,100.00
2023-06-27T03:46:47.210Z,100.00
2023-06-27T03:49:58.301Z,100.00
2023-06-27T03:53:07.738Z,100.00
2023-06-27T03:56:31.487Z,100.00
2023-06-27T03:59:59.435Z,100.00
2023-06-27T04:03:07.150Z,100.00
2023-06-27T04:06:23.289Z,100.00
2023-06-27T04:09:30.856Z,100.00
2023-06-27T04:12:20.886Z,100.00
2023-06-27T04:15:11.633Z,100.00
2023-06-27T04:18:39.645Z,100.00
2023-06-27T04:21:49.558Z,100.00
2023-06-27T04:24:58.615Z,100.00
2023-06-27T04:27:47.817Z,100.00
2023-06-27T04:31:15.427Z,100.00
2023-06-27T04:34:20.325Z,100.00
2023-06-27T04:37:43.908Z,100.00
2023-06-27T04:41:11.464Z,100.00
2023-06-27T04:44:24.148Z,100.00
2023-06-27T04:47:28.069Z,100.00
2023-06-27T04:50:55.560Z,100.00
2023-06-27T04:54:23.372Z,100.00
2023-06-27T04:57:32.256Z,100.00
2023-06-27T05:00:26.504Z,100.00
2023-06-27T05:03:54.275Z,100.00
2023-06-27T05:07:10.372Z,100.00
2023-06-27T05:10:19.073Z,100.00
2023-06-27T05:13:27.451Z,100.00
2023-06-27T05:16:23.808Z,100.00
2023-06-27T05:19:35.435Z,100.00
2023-06-27T05:23:03.124Z,100.00
2023-06-27T05:26:12.711Z,100.00
2023-06-27T05:29:02.870Z,100.00
2023-06-27T05:32:12.622Z,100.00
2023-06-27T05:35:40.734Z,100.00
2023-06-27T05:39:08.096Z,100.00
2023-06-27T05:42:35.813Z,100.00
2023-06-27T05:45:44.412Z,99.75
2023-06-27T05:49:12.000Z,99.54
2023-06-27T05:52:09.191Z,99.44
2023-06-27T05:55:16.972Z,99.19
2023-06-27T05:58:44.730Z,97.38
2023-06-27T06:01:15.000Z,96.94
2023-06-27T06:04:42.554Z,96.81
2023-06-27T06:08:10.137Z,95.51
2023-06-27T06:11:37.904Z,94.94
2023-06-27T06:14:53.399Z,94.15
2023-06-27T06:18:01.924Z,93.66
2023-06-27T06:20:53.416Z,93.52
2023-06-27T06:24:23.912Z,93.16
2023-06-27T06:28:01.726Z,91.89
2023-06-27T06:31:29.431Z,90.96
2023-06-27T06:34:39.199Z,90.32
2023-06-27T06:37:46.982Z,90.28
2023-06-27T06:40:54.960Z,89.94
2023-06-27T06:44:04.763Z,88.44
2023-06-27T06:47:32.336Z,87.53
2023-06-27T06:50:21.123Z,87.27
2023-06-27T06:53:30.250Z,87.22
2023-06-27T06:56:57.834Z,85.24
2023-06-27T06:59:49.483Z,85.97
2023-06-27T07:03:17.403Z,85.81
2023-06-27T07:06:45.237Z,84.09
2023-06-27T07:09:34.826Z,83.98
2023-06-27T07:12:24.096Z,83.05
2023-06-27T07:14:51.798Z,83.63
2023-06-27T07:17:28.856Z,82.47
2023-06-27T07:20:36.641Z,82.09
2023-06-27T07:23:26.094Z,81.85
2023-06-27T07:26:53.649Z,80.95
2023-06-27T07:29:41.389Z,79.05
2023-06-27T07:32:30.416Z,77.42
2023-06-27T07:35:45.652Z,78.39
2023-06-27T07:39:13.712Z,77.61
2023-06-27T07:42:41.447Z,75.70
2023-06-27T07:46:09.048Z,76.10
2023-06-27T07:48:37.086Z,74.65
2023-06-27T07:51:06.851Z,73.57
2023-06-27T07:54:34.603Z,73.50
2023-06-27T07:57:03.197Z,70.53
2023-06-27T08:00:30.777Z,68.07
2023-06-27T08:03:58.321Z,69.18
2023-06-27T08:07:06.009Z,69.09
2023-06-27T08:10:33.811Z,69.78
2023-06-27T08:13:02.579Z,67.13
2023-06-27T08:16:14.193Z,65.80
2023-06-27T08:19:41.972Z,66.22
2023-06-27T08:22:17.311Z,67.11
2023-06-27T08:24:47.083Z,66.22
2023-06-27T08:27:43.547Z,66.41
2023-06-27T08:30:19.987Z,64.16
2023-06-27T08:33:36.153Z,64.84
2023-06-27T08:36:59.161Z,64.51
2023-06-27T08:40:27.007Z,59.51
2023-06-27T08:43:36.618Z,58.08
2023-06-27T08:47:06.236Z,57.17
2023-06-27T08:50:16.124Z,58.15
2023-06-27T08:53:44.316Z,57.05
2023-06-27T08:56:52.653Z,56.50
2023-06-27T09:00:20.514Z,57.39
2023-06-27T09:03:30.421Z,57.66
2023-06-27T09:06:58.113Z,57.66
2023-06-27T09:10:26.556Z,57.00
2023-06-27T09:13:50.166Z,56.44
2023-06-27T09:16:58.860Z,54.46
2023-06-27T09:20:26.579Z,55.36
2023-06-27T09:23:16.335Z,54.77
2023-06-27T09:26:43.926Z,52.61
2023-06-27T09:29:51.530Z,51.38
2023-06-27T09:32:20.361Z,50.68
2023-06-27T09:34:48.188Z,51.01
2023-06-27T09:40:07.699Z,45.64
2023-06-27T09:43:16.199Z,45.84
2023-06-27T09:46:43.673Z,45.79
2023-06-27T09:50:11.304Z,46.07
2023-06-27T09:53:20.003Z,45.76
2023-06-27T09:56:11.843Z,45.86
2023-06-27T09:58:40.150Z,46.10
2023-06-27T10:01:30.321Z,45.72
2023-06-27T10:04:02.833Z,47.10
2023-06-27T10:06:31.804Z,45.72
2023-06-27T10:08:59.550Z,44.22
2023-06-27T10:11:27.285Z,44.06
2023-06-27T10:14:00.148Z,43.26
2023-06-27T10:16:28.794Z,42.89
2023-06-27T10:19:37.599Z,43.15
2023-06-27T10:22:46.373Z,41.35
2023-06-27T10:26:13.834Z,40.57
2023-06-27T10:29:22.434Z,40.85
2023-06-27T10:32:50.350Z,39.75
2023-06-27T10:35:21.511Z,40.87
2023-06-27T10:38:49.146Z,39.74
2023-06-27T10:41:38.797Z,38.80
2023-06-27T10:44:30.890Z,39.00
2023-06-27T10:47:38.611Z,39.18
2023-06-27T10:50:17.098Z,39.30
2023-06-27T10:53:44.716Z,40.21
2023-06-27T10:57:12.389Z,37.00
2023-06-27T11:00:40.043Z,37.82
2023-06-27T11:03:52.515Z,37.49
2023-06-27T11:07:19.856Z,37.02
2023-06-27T11:10:28.660Z,37.05
2023-06-27T11:13:56.376Z,35.58
2023-06-27T11:17:05.026Z,35.56
2023-06-27T11:20:32.835Z,36.34
2023-06-27T11:23:21.800Z,34.75
2023-06-27T11:26:29.527Z,33.85
2023-06-27T11:29:37.280Z,34.50
2023-06-27T11:33:05.041Z,32.39
2023-06-27T11:36:09.578Z,33.07
2023-06-27T11:39:37.371Z,33.37
2023-06-27T11:43:04.951Z,33.09
2023-06-27T11:46:32.545Z,34.95
2023-06-27T11:49:55.955Z,34.16
2023-06-27T11:53:23.445Z,36.44
2023-06-27T11:56:51.141Z,40.83
2023-06-27T11:59:59.588Z,41.39
2023-06-27T12:03:27.131Z,42.67
2023-06-27T12:06:54.777Z,43.44
2023-06-27T12:10:06.353Z,44.43
2023-06-27T12:13:33.899Z,46.51
2023-06-27T12:17:01.607Z,47.83
2023-06-27T12:20:29.158Z,47.32
2023-06-27T12:23:38.029Z,46.13
2023-06-27T12:27:05.767Z,45.29
2023-06-27T12:30:34.084Z,43.28
2023-06-27T12:33:43.531Z,43.24
2023-06-27T12:37:11.504Z,40.29
2023-06-27T12:40:39.383Z,40.74
2023-06-27T12:43:47.835Z,40.03
2023-06-27T12:46:41.464Z,40.61
2023-06-27T12:49:50.219Z,41.36
2023-06-27T12:52:40.848Z,42.68
2023-06-27T12:55:49.583Z,43.98
2023-06-27T12:59:17.128Z,44.45
2023-06-27T13:02:44.979Z,42.84
2023-06-27T13:05:53.373Z,44.05
2023-06-27T13:09:21.115Z,45.18
2023-06-27T13:12:30.921Z,46.18
2023-06-27T13:15:42.676Z,46.05
2023-06-27T13:19:07.353Z,44.83
2023-06-27T13:22:34.921Z,45.18
2023-06-27T13:26:02.457Z,47.80
2023-06-27T13:29:30.258Z,48.73
2023-06-27T13:32:58.061Z,52.16
2023-06-27T13:36:25.591Z,55.03
2023-06-27T13:39:53.625Z,55.81
2023-06-27T13:43:21.242Z,55.68
2023-06-27T13:46:38.531Z,55.30
2023-06-27T13:50:06.526Z,54.32
2023-06-27T13:53:34.082Z,53.79
2023-06-27T13:57:01.871Z,54.08
2023-06-27T14:00:10.036Z,56.05
2023-06-27T14:03:37.693Z,59.44
2023-06-27T14:06:49.313Z,61.94
2023-06-27T14:09:58.874Z,63.32
2023-06-27T14:13:26.592Z,64.23
2023-06-27T14:16:34.854Z,63.60
2023-06-27T14:20:02.560Z,63.28
2023-06-27T14:23:30.371Z,64.19
2023-06-27T14:26:38.897Z,63.66
2023-06-27T14:29:48.462Z,63.26
2023-06-27T14:32:56.378Z,61.01
2023-06-27T14:36:07.635Z,58.53
2023-06-27T14:39:32.866Z,57.90
2023-06-27T14:43:00.551Z,58.52
2023-06-27T14:46:28.554Z,58.76
2023-06-27T14:49:38.434Z,58.58
2023-06-27T14:53:05.903Z,58.67
2023-06-27T14:56:33.528Z,58.28
2023-06-27T15:00:01.465Z,57.37
2023-06-27T15:03:11.299Z,56.11
2023-06-27T15:06:17.288Z,54.36
2023-06-27T15:09:06.847Z,50.73
2023-06-27T15:12:14.517Z,49.25
2023-06-27T15:14:53.251Z,47.28
2023-06-27T15:17:51.155Z,45.08
2023-06-27T15:20:46.983Z,44.46
2023-06-27T15:24:14.815Z,42.76
2023-06-27T15:27:31.720Z,41.33
2023-06-27T15:30:39.438Z,41.58
2023-06-27T15:34:06.926Z,42.44
2023-06-27T15:37:15.588Z,44.27
2023-06-27T15:40:23.619Z,45.89
2023-06-27T15:43:51.441Z,47.87
2023-06-27T15:47:19.023Z,48.01
2023-06-27T15:50:27.212Z,46.80
2023-06-27T15:53:55.075Z,45.63
2023-06-27T15:57:22.876Z,45.14
2023-06-27T16:00:31.304Z,44.11
2023-06-27T16:03:38.922Z,44.67
2023-06-27T16:06:47.415Z,45.33
2023-06-27T16:10:14.980Z,46.07
2023-06-27T16:13:42.420Z,46.34
2023-06-27T16:17:10.155Z,46.00
2023-06-27T16:20:37.710Z,45.77
2023-06-27T16:24:05.666Z,46.46
2023-06-27T16:27:13.611Z,47.31
2023-06-27T16:30:41.693Z,49.33
2023-06-27T16:34:09.127Z,51.14
2023-06-27T16:37:20.519Z,52.52
2023-06-27T16:40:29.549Z,53.69
2023-06-27T16:43:57.093Z,55.01
2023-06-27T16:47:24.649Z,56.46
2023-06-27T16:50:52.313Z,58.29
2023-06-27T16:54:04.023Z,59.25
2023-06-27T16:57:13.873Z,60.37
2023-06-27T17:00:38.809Z,60.30
2023-06-27T17:04:06.662Z,60.21
2023-06-27T17:07:34.731Z,60.72
2023-06-27T17:11:02.347Z,61.52
2023-06-27T17:14:29.985Z,61.97
2023-06-27T17:17:57.570Z,62.81
2023-06-27T17:21:06.254Z,63.78
2023-06-27T17:23:56.669Z,64.72
2023-06-27T17:27:26.466Z,64.51
2023-06-27T17:30:35.105Z,62.48
2023-06-27T17:34:02.775Z,62.28
2023-06-27T17:36:51.920Z,61.19
2023-06-27T17:40:20.065Z,60.21
2023-06-27T17:43:29.768Z,60.18
2023-06-27T17:46:57.282Z,60.15
2023-06-27T17:50:07.401Z,59.38
2023-06-27T17:53:35.930Z,59.18
2023-06-27T17:56:47.108Z,58.33
2023-06-27T18:00:14.094Z,57.82
2023-06-27T18:03:41.734Z,57.37
2023-06-27T18:07:00.628Z,57.08
2023-06-27T18:10:28.495Z,57.56
2023-06-27T18:13:19.647Z,57.40
2023-06-27T18:16:47.215Z,57.15
2023-06-27T18:20:14.925Z,57.52
2023-06-27T18:23:29.987Z,57.96
2023-06-27T18:26:19.978Z,57.81
2023-06-27T18:29:47.583Z,58.16
2023-06-27T18:32:59.383Z,58.77
2023-06-27T18:36:07.992Z,58.51
2023-06-27T18:39:23.466Z,58.74
2023-06-27T18:42:32.397Z,59.70
2023-06-27T18:45:40.095Z,60.22
2023-06-27T18:49:07.660Z,62.16
2023-06-27T18:52:35.347Z,63.70
2023-06-27T18:56:02.898Z,65.11
2023-06-27T18:59:26.026Z,67.96
2023-06-27T19:02:53.545Z,67.99
2023-06-27T19:06:21.229Z,68.13
2023-06-27T19:09:48.935Z,68.41
2023-06-27T19:12:57.630Z,69.03
2023-06-27T19:16:06.120Z,71.35
2023-06-27T19:19:33.652Z,73.62
2023-06-27T19:23:01.454Z,73.56
2023-06-27T19:26:29.712Z,72.57
2023-06-27T19:29:57.848Z,72.02
2023-06-27T19:33:07.416Z,71.04
2023-06-27T19:36:16.312Z,69.49
2023-06-27T19:39:46.347Z,68.92
2023-06-27T19:42:52.689Z,69.28
2023-06-27T19:46:20.449Z,68.91
2023-06-27T19:49:28.702Z,69.45
2023-06-27T19:52:39.366Z,69.69
2023-06-27T19:56:06.905Z,69.88
2023-06-27T19:59:14.598Z,69.06
2023-06-27T20:02:24.181Z,69.57
2023-06-27T20:05:51.672Z,69.60
2023-06-27T20:09:00.437Z,69.66
2023-06-27T20:12:09.154Z,69.75
2023-06-27T20:15:25.071Z,70.19
2023-06-27T20:18:37.194Z,70.43
2023-06-27T20:21:40.929Z,71.83
2023-06-27T20:24:49.711Z,72.73
2023-06-27T20:28:14.496Z,74.20
2023-06-27T20:31:42.344Z,75.24
2023-06-27T20:35:12.629Z,76.55
2023-06-27T20:38:25.434Z,77.38
2023-06-27T20:41:53.091Z,79.43
2023-06-27T20:45:20.749Z,79.58
2023-06-27T20:48:29.892Z,80.46
2023-06-27T20:51:57.357Z,81.04
2023-06-27T20:55:25.016Z,83.23
2023-06-27T20:58:52.716Z,87.33
2023-06-27T21:02:00.320Z,90.71
2023-06-27T21:05:27.944Z,92.64
2023-06-27T21:07:57.367Z,94.32
2023-06-27T21:11:24.978Z,98.15
2023-06-27T21:14:52.786Z,99.83
2023-06-27T21:18:01.477Z,99.66
2023-06-27T21:21:29.081Z,100.00
2023-06-27T21:24:56.731Z,100.00
2023-06-27T21:28:05.118Z,100.00
2023-06-27T21:31:14.922Z,100.00
2023-06-27T21:34:42.620Z,100.00
2023-06-27T21:37:39.330Z,100.00
2023-06-27T21:41:06.857Z,100.00
2023-06-27T21:44:30.936Z,100.00
2023-06-27T21:48:01.573Z,100.00
2023-06-27T21:51:26.368Z,100.00
2023-06-27T21:54:54.250Z,100.00
2023-06-27T21:58:06.908Z,100.00
2023-06-27T22:01:34.505Z,100.00
2023-06-27T22:04:36.177Z,100.00
2023-06-27T22:07:47.161Z,100.00
2023-06-27T22:10:36.179Z,100.00
2023-06-27T22:14:04.162Z,100.00
2023-06-27T22:17:31.656Z,100.00
2023-06-27T22:20:59.129Z,100.00
2023-06-27T22:24:26.842Z,100.00
2023-06-27T22:27:40.092Z,100.00
2023-06-27T22:31:07.781Z,100.00
2023-06-27T22:34:01.194Z,100.00
2023-06-27T22:37:12.696Z,100.00
2023-06-27T22:40:40.615Z,100.00
2023-06-27T22:43:48.527Z,100.00
2023-06-27T22:46:58.482Z,100.00
2023-06-27T22:50:07.668Z,100.00
2023-06-27T22:53:35.584Z,100.00
2023-06-27T22:56:06.868Z,100.00
2023-06-27T22:59:15.646Z,100.00
2023-06-27T23:02:43.156Z,100.00
2023-06-27T23:06:10.752Z,100.00
2023-06-27T23:09:38.298Z,100.00
2023-06-27T23:13:05.893Z,100.00
2023-06-27T23:16:33.495Z,100.00
2023-06-27T23:20:01.219Z,100.00
2023-06-27T23:23:09.734Z,100.00
2023-06-27T23:26:37.450Z,100.00
2023-06-27T23:30:06.584Z,100.00
2023-06-27T23:33:34.153Z,100.00
2023-06-27T23:37:01.746Z,100.00
2023-06-27T23:40:29.241Z,100.00
2023-06-27T23:43:37.892Z,100.00
2023-06-27T23:47:05.405Z,100.00
2023-06-27T23:50:33.006Z,100.00
2023-06-27T23:53:41.523Z,100.00
2023-06-27T23:56:51.250Z,100.00
